Details From LBSF - Sofia
To LBBG - Burgas
Flight Number -
Tags generated
Created
Modified
Stats Distance 190 nm / 351 km
Max Altitude 19,500 ft / 5,944 m
Waypoints 3
Social Downloads 1
Likes 0
Share VATSIM

Download

Looking for another format? Having issues loading an existing format? Contact us
Advertisement - Login to hide

Notes

Basic altitude profile: - Ascent Rate: 2500ft/min - Ascent Speed: 250kts - Cruise Altitude: 35000ft - Cruise Speed: 470kts - Descent Rate: 1800ft/min - Descent Speed: 250kts Options: - Use NATs: yes - Use PACOTS: yes - Use low airways: no - Use high airways: yes

Route

LBSF GERGI LBBG

ID Type Via Altitude Latitude Longitude Leg Dist Tot Dist Heading (true) Name
O LBSF APT - 0 ft / 0 m 42.69713˚ 23.41672˚ - 0 nm - Sofia
GERGI FIX - 19,500 ft / 5,944 m 42.18333˚ 25.52194˚ 98 nm 98 nm 108° / 109° -
O LBBG APT - 0 ft / 0 m 42.57013˚ 27.51524˚ 91 nm 189 nm 75° / 76° Burgas

Altitude Profile

Advertisement - Login to hide

Weather


0- 5 10 15 20 25 30 35+ Temperature / ° C

Clouds and Precipitation
Forecast for 2018-05-23 06:00 UTC. Updated 15 minutes ago

Ground ~20,000 ft ~40,000 ft Winds

LBSF

Details ICAO LBSF (SOF)
Name Sofia
Region Bulgaria
Timezone Europe/Sofia (UTC+3.0)
Stats Elevation 1,741 ft / 531 m (AMSL)
Location 42.697130° 23.416722°
Runways 1
Magnetic Variation 4.980° E

METAR

LBSF 230530Z 10006KT CAVOK 16/12 Q1021 NOSIG

Decode

TAF

TAF LBSF 222300Z 2300/2324 VRB04KT 9999 SCT060 TEMPO 2302/2305 5000 BR SCT015 BECMG 2309/2311 12010KT TEMPO 2311/2318 5000 TSRA SCT030CB BKN050 BECMG 2318/2320 VRB04KT

Decode

Departure Runways

ID Width Length Bearing (true) Bearing (mag) Surface Threshold Offset Overrun Length
09 148 ft / 45 m 11,801 ft / 3,597 m 93.99° 89.01° Asphalt 984 ft / 300 m 525 ft / 160 m
27 148 ft / 45 m 11,801 ft / 3,597 m 274.02° 269.04° Asphalt 0 ft / 0 m 525 ft / 160 m

LBBG

Details ICAO LBBG (BOJ)
Name Burgas
Region Bulgaria
Timezone Europe/Sofia (UTC+3.0)
Stats Elevation 135 ft / 41 m (AMSL)
Location 42.570130° 27.515240°
Runways 1
Magnetic Variation 5.548° E

METAR

LBBG 230530Z 04004KT 010V080 9999 FEW027 21/15 Q1020 NOSIG

Decode

TAF

TAF LBBG 222300Z 2300/2324 VRB04KT CAVOK TEMPO 2301/2305 5000 BR BKN015 BECMG 2307/2309 10012KT BECMG 2317/2319 04008KT

Decode

Destination Runways

ID Width Length Bearing (true) Bearing (mag) Surface Threshold Offset Overrun Length
04 148 ft / 45 m 10,502 ft / 3,201 m 44.28° 38.73° Concrete 0 ft / 0 m 190 ft / 58 m
22 148 ft / 45 m 10,502 ft / 3,201 m 224.29° 218.74° Concrete 0 ft / 0 m 190 ft / 58 m

Approach Navaids

Runway Type Ident Frequency Range Bearing (true) Bearing (mag) Slope Elevation
22 Localiser IBG 110.30 MHz 18 nm / 33 km 224.26° 218.72° - 135 ft / 41 m (AMSL)
22 Glidescope IBG 110.30 MHz 10 nm / 19 km 224.28° 218.74° 3.00° 135 ft / 41 m (AMSL)

Popular Alternatives